Time;durP1;ratioP1;P1;durP2;ratioP2;P2;SDS_P1;SDS_P2;PMS_P1;PMS_P2;Temp;Humidity;BMP_temperature;BMP_pressure;BME280_temperature;BME280_humidity;BME280_pressure;Samples;Min_cycle;Max_cycle;Signal;HPM_P1;HPM_P2
2022/05/06 00:00:03;;;;;;;14.13;7.88;;;15.00;99.90;;;;;;5093567;28;20043;-81
2022/05/06 00:02:50;;;;;;;12.05;6.90;;;15.20;99.90;;;;;;5093885;28;20124;-78
2022/05/06 00:05:36;;;;;;;10.10;7.25;;;14.80;99.90;;;;;;5093457;28;20198;-81
2022/05/06 00:08:22;;;;;;;11.65;7.40;;;14.70;99.90;;;;;;5093140;28;20042;-79
2022/05/06 00:11:08;;;;;;;10.20;6.95;;;14.80;99.90;;;;;;5093425;28;20398;-78
2022/05/06 00:13:54;;;;;;;12.82;7.70;;;14.70;99.90;;;;;;5092644;28;20042;-79
2022/05/06 00:16:40;;;;;;;12.40;7.15;;;15.00;99.90;;;;;;5093173;28;20051;-80
2022/05/06 00:19:26;;;;;;;9.45;7.35;;;15.20;99.90;;;;;;5093576;28;20051;-80
2022/05/06 00:22:12;;;;;;;11.80;6.65;;;15.30;99.90;;;;;;5093338;28;20040;-81
2022/05/06 00:24:58;;;;;;;10.15;6.35;;;15.30;99.90;;;;;;5093182;28;20395;-80
2022/05/06 00:27:44;;;;;;;11.25;6.68;;;15.00;99.90;;;;;;5093091;28;20047;-79
2022/05/06 00:30:30;;;;;;;14.77;7.03;;;14.80;99.90;;;;;;5093216;28;20038;-79
2022/05/06 00:33:15;;;;;;;15.05;7.45;;;14.60;99.90;;;;;;5092876;28;20054;-79
2022/05/06 00:36:03;;;;;;;12.60;6.95;;;14.60;99.90;;;;;;5093092;28;20047;-80
2022/05/06 00:38:49;;;;;;;10.27;6.75;;;14.70;99.90;;;;;;5092667;28;20043;-80
2022/05/06 00:41:35;;;;;;;10.68;6.70;;;14.60;99.90;;;;;;5092399;28;20054;-80
2022/05/06 00:44:22;;;;;;;10.40;6.75;;;14.50;99.90;;;;;;5092597;28;20394;-78
2022/05/06 00:47:09;;;;;;;10.57;7.53;;;14.80;99.90;;;;;;5091714;28;20181;-81
2022/05/06 00:49:54;;;;;;;11.85;6.82;;;14.50;99.90;;;;;;5092767;28;20043;-80
2022/05/06 00:52:41;;;;;;;11.88;6.95;;;14.30;99.90;;;;;;5092607;28;20046;-81
2022/05/06 00:55:27;;;;;;;15.60;6.90;;;14.50;99.90;;;;;;5091089;28;20047;-81
2022/05/06 00:58:14;;;;;;;11.35;6.60;;;14.30;99.90;;;;;;5091721;28;20058;-80
2022/05/06 01:01:04;;;;;;;16.20;8.27;;;14.30;99.90;;;;;;5091513;28;20169;-81
2022/05/06 01:03:50;;;;;;;11.03;7.10;;;14.60;99.90;;;;;;5091974;28;20043;-80
2022/05/06 01:06:37;;;;;;;9.05;6.60;;;14.80;99.90;;;;;;5092311;28;20338;-81
2022/05/06 01:09:23;;;;;;;12.77;6.88;;;14.70;99.90;;;;;;5090988;28;20058;-81
2022/05/06 01:12:09;;;;;;;11.40;7.03;;;14.80;99.90;;;;;;5071216;28;20059;-81
2022/05/06 01:14:55;;;;;;;10.50;7.50;;;14.40;99.90;;;;;;5071951;28;20047;-77
2022/05/06 01:17:41;;;;;;;14.68;7.30;;;14.20;99.90;;;;;;5071104;28;20043;-79
2022/05/06 01:20:27;;;;;;;12.57;7.13;;;14.00;99.90;;;;;;5071680;28;20035;-81
2022/05/06 01:23:13;;;;;;;13.55;7.43;;;13.80;99.90;;;;;;5071577;28;20145;-81
2022/05/06 01:25:59;;;;;;;11.10;7.50;;;13.90;99.90;;;;;;5071681;28;20102;-83
2022/05/06 01:28:47;;;;;;;9.32;7.05;;;14.00;99.90;;;;;;5071561;28;20058;-83
2022/05/06 01:31:32;;;;;;;10.88;7.25;;;14.20;99.90;;;;;;5071821;28;20051;-82
2022/05/06 01:34:19;;;;;;;9.85;7.10;;;14.60;99.90;;;;;;5071490;28;20047;-82
2022/05/06 01:37:07;;;;;;;9.52;7.20;;;14.60;99.90;;;;;;5070585;28;20391;-82
2022/05/06 01:39:58;;;;;;;11.93;7.30;;;14.50;99.90;;;;;;5070449;28;20056;-82
2022/05/06 01:42:46;;;;;;;11.40;6.95;;;14.10;99.90;;;;;;5071075;28;20063;-80
2022/05/06 01:45:34;;;;;;;14.25;7.47;;;13.80;99.90;;;;;;5070280;28;20550;-79
2022/05/06 01:48:21;;;;;;;10.73;7.35;;;13.90;99.90;;;;;;5069637;28;20137;-81
2022/05/06 01:51:09;;;;;;;13.23;8.15;;;13.70;99.90;;;;;;5071626;28;20106;-81
2022/05/06 01:53:56;;;;;;;12.85;8.20;;;13.60;99.90;;;;;;5071479;28;20134;-81
2022/05/06 01:56:42;;;;;;;12.30;8.25;;;13.50;99.90;;;;;;5071649;28;20043;-78
2022/05/06 01:59:27;;;;;;;13.07;8.48;;;13.50;99.90;;;;;;5071635;28;20051;-78
2022/05/06 02:02:13;;;;;;;15.18;8.90;;;13.60;99.90;;;;;;5071438;28;20062;-80
2022/05/06 02:05:17;;;;;;;15.82;8.65;;;13.50;99.90;;;;;;5071562;28;20040;-79
2022/05/06 02:08:03;;;;;;;12.93;8.88;;;13.40;99.90;;;;;;5071532;28;20044;-78
2022/05/06 02:10:49;;;;;;;12.43;8.13;;;13.40;99.90;;;;;;5082935;28;20082;-81
2022/05/06 02:13:35;;;;;;;13.25;7.70;;;13.50;99.90;;;;;;5091320;28;20051;-80
2022/05/06 02:16:21;;;;;;;11.80;7.90;;;13.70;99.90;;;;;;5093867;28;20379;-80
2022/05/06 02:19:07;;;;;;;11.10;7.55;;;13.70;99.90;;;;;;5095437;28;20070;-79
2022/05/06 02:21:54;;;;;;;10.70;7.50;;;14.00;99.90;;;;;;5095076;28;20085;-80
2022/05/06 02:24:41;;;;;;;11.40;7.60;;;14.10;99.90;;;;;;5095793;28;20190;-79
2022/05/06 02:27:28;;;;;;;11.23;8.07;;;14.20;99.90;;;;;;5095284;28;20050;-79
2022/05/06 02:33:23;;;;;;;11.52;6.50;;;14.30;99.90;;;;;;5095253;28;20493;-78
2022/05/06 02:36:09;;;;;;;12.15;6.95;;;13.80;99.90;;;;;;5095029;28;20055;-79
2022/05/06 02:38:55;;;;;;;11.75;6.72;;;13.60;99.90;;;;;;5095305;28;20128;-79
2022/05/06 02:41:41;;;;;;;9.38;6.80;;;13.80;99.90;;;;;;5095018;28;20070;-79
2022/05/06 02:44:27;;;;;;;9.50;6.70;;;14.00;99.90;;;;;;5095127;28;20484;-79
2022/05/06 02:47:13;;;;;;;10.35;6.13;;;14.00;99.90;;;;;;5095026;28;20047;-79
2022/05/06 02:49:59;;;;;;;13.65;7.18;;;14.00;99.90;;;;;;5093758;28;20109;-79
2022/05/06 02:52:45;;;;;;;10.93;6.75;;;14.20;99.90;;;;;;5094750;28;20714;-79
2022/05/06 02:55:33;;;;;;;9.02;7.05;;;14.00;99.90;;;;;;5094487;28;20043;-78
2022/05/06 02:58:19;;;;;;;11.73;7.57;;;13.90;99.90;;;;;;5095048;28;20051;-78
2022/05/06 03:01:05;;;;;;;10.25;6.88;;;13.90;99.90;;;;;;5094452;28;20097;-82
2022/05/06 03:03:51;;;;;;;11.80;6.70;;;14.10;99.90;;;;;;5094314;28;20047;-79
2022/05/06 03:06:39;;;;;;;13.07;8.05;;;13.70;99.90;;;;;;5094650;28;20201;-80
2022/05/06 03:09:25;;;;;;;10.65;7.03;;;13.70;99.90;;;;;;5094064;28;20047;-84
2022/05/06 03:12:11;;;;;;;11.45;7.35;;;13.90;99.90;;;;;;5073712;28;20391;-83
2022/05/06 03:14:58;;;;;;;15.82;9.38;;;13.80;99.90;;;;;;5072972;28;20490;-82
2022/05/06 03:17:44;;;;;;;20.30;10.32;;;13.80;99.90;;;;;;5073969;28;20052;-81
2022/05/06 03:20:31;;;;;;;21.48;9.38;;;13.70;99.90;;;;;;5073562;28;20075;-79
2022/05/06 03:23:17;;;;;;;16.95;9.00;;;13.60;99.90;;;;;;5074301;28;20094;-80
2022/05/06 03:26:03;;;;;;;17.25;10.15;;;13.80;99.90;;;;;;5073422;28;20048;-81
2022/05/06 03:28:49;;;;;;;17.17;9.35;;;13.80;99.90;;;;;;5074041;28;20114;-82
2022/05/06 03:31:36;;;;;;;20.33;9.52;;;13.70;99.90;;;;;;5073611;28;20048;-83
2022/05/06 03:34:22;;;;;;;14.80;7.50;;;13.80;99.90;;;;;;5074131;28;20093;-82
2022/05/06 03:37:08;;;;;;;17.85;8.40;;;13.50;99.90;;;;;;5073765;28;20614;-81
2022/05/06 03:39:54;;;;;;;15.50;8.05;;;13.50;99.90;;;;;;5073009;28;20048;-82
2022/05/06 03:42:41;;;;;;;14.40;8.10;;;13.50;99.90;;;;;;5073528;28;20402;-83
2022/05/06 03:45:27;;;;;;;13.73;8.98;;;13.40;99.90;;;;;;5073852;28;20143;-83
2022/05/06 03:48:13;;;;;;;14.85;8.25;;;13.40;99.90;;;;;;5073600;28;20534;-84
2022/05/06 03:54:04;;;;;;;12.90;8.02;;;13.60;99.90;;;;;;5073058;28;20139;-79
2022/05/06 03:56:52;;;;;;;13.10;8.73;;;13.60;99.90;;;;;;5073695;28;20060;-85
2022/05/06 03:59:38;;;;;;;17.60;8.30;;;13.60;99.90;;;;;;5073653;28;20541;-85
2022/05/06 04:02:23;;;;;;;14.02;7.60;;;13.70;99.90;;;;;;5072097;28;20044;-85
2022/05/06 04:05:10;;;;;;;13.23;7.38;;;13.60;99.90;;;;;;5072309;28;20162;-81
2022/05/06 04:07:57;;;;;;;11.52;7.97;;;13.60;99.90;;;;;;5073439;28;20121;-82
2022/05/06 04:10:44;;;;;;;16.35;7.63;;;13.50;99.90;;;;;;5078863;28;20043;-84
2022/05/06 04:13:30;;;;;;;14.45;7.90;;;13.50;99.90;;;;;;5093284;28;20059;-82
2022/05/06 04:16:15;;;;;;;14.05;8.73;;;13.70;99.90;;;;;;5092495;28;20514;-82
2022/05/06 04:19:01;;;;;;;14.55;8.82;;;13.70;99.90;;;;;;5093126;28;20133;-82
2022/05/06 04:24:51;;;;;;;14.57;8.20;;;13.50;99.90;;;;;;5093647;28;20426;-78
2022/05/06 04:27:37;;;;;;;14.73;8.40;;;13.60;99.90;;;;;;5093060;28;20055;-77
2022/05/06 04:30:23;;;;;;;17.63;8.38;;;13.70;99.90;;;;;;5093146;28;20121;-78
2022/05/06 04:33:09;;;;;;;15.73;8.13;;;13.60;99.90;;;;;;5093158;28;20043;-80
2022/05/06 04:35:56;;;;;;;13.63;7.97;;;13.60;99.90;;;;;;5093283;28;20132;-79
2022/05/06 04:38:42;;;;;;;15.90;8.27;;;13.70;99.90;;;;;;5091171;28;20062;-84
2022/05/06 04:41:28;;;;;;;92.75;54.83;;;13.60;99.90;;;;;;5092107;28;20055;-82
2022/05/06 04:44:17;;;;;;;36.45;23.90;;;13.80;99.90;;;;;;5091844;28;20055;-85
2022/05/06 04:47:04;;;;;;;20.25;12.35;;;13.80;99.90;;;;;;5092791;28;20533;-85
2022/05/06 04:49:50;;;;;;;17.65;9.88;;;13.70;99.90;;;;;;5092478;28;20051;-81
2022/05/06 04:52:36;;;;;;;16.33;9.52;;;13.70;99.90;;;;;;5092458;28;20050;-87
2022/05/06 04:55:22;;;;;;;21.02;10.98;;;13.90;99.90;;;;;;5092393;28;20144;-79
2022/05/06 04:58:09;;;;;;;45.22;29.17;;;14.10;99.90;;;;;;5092765;28;20186;-77
2022/05/06 05:00:55;;;;;;;68.90;44.25;;;14.20;99.90;;;;;;5092443;28;20050;-81
2022/05/06 05:03:41;;;;;;;69.50;44.10;;;14.50;99.90;;;;;;5092530;28;20078;-80
2022/05/06 05:06:27;;;;;;;151.15;87.03;;;14.70;99.90;;;;;;5092011;28;20136;-78
2022/05/06 05:09:13;;;;;;;53.80;36.15;;;14.50;99.90;;;;;;5092344;28;20059;-78
2022/05/06 05:11:59;;;;;;;17.38;11.55;;;14.50;99.90;;;;;;5079696;28;20068;-78
2022/05/06 05:14:45;;;;;;;17.98;10.30;;;14.40;99.90;;;;;;5087676;28;20523;-78
2022/05/06 05:17:31;;;;;;;15.10;10.18;;;14.40;99.90;;;;;;5090731;28;20043;-79
2022/05/06 05:20:17;;;;;;;19.60;11.95;;;14.40;99.90;;;;;;5091687;28;20055;-78
2022/05/06 05:23:03;;;;;;;16.27;9.75;;;14.50;99.90;;;;;;5091548;28;20129;-81
2022/05/06 05:25:50;;;;;;;50.33;31.77;;;14.50;99.90;;;;;;5092067;28;20051;-81
2022/05/06 05:28:36;;;;;;;98.43;59.03;;;14.90;99.90;;;;;;5090383;28;20051;-80
2022/05/06 05:31:22;;;;;;;35.05;20.80;;;15.20;99.90;;;;;;5091320;28;20149;-80
2022/05/06 05:34:08;;;;;;;22.65;11.93;;;15.00;99.90;;;;;;5089758;28;20055;-81
2022/05/06 05:36:54;;;;;;;24.23;10.70;;;14.90;99.90;;;;;;5090462;28;20051;-80
2022/05/06 05:39:41;;;;;;;24.10;10.50;;;14.90;99.90;;;;;;5090689;28;20054;-79
2022/05/06 05:42:27;;;;;;;19.10;10.75;;;14.80;99.90;;;;;;5091326;28;20054;-81
2022/05/06 05:48:20;;;;;;;17.83;10.20;;;14.90;99.90;;;;;;5091210;28;20051;-80
2022/05/06 05:51:06;;;;;;;26.58;11.00;;;15.00;99.90;;;;;;5091225;28;20525;-81
2022/05/06 05:53:52;;;;;;;23.85;12.20;;;14.90;99.90;;;;;;5090014;28;20063;-86
2022/05/06 05:56:38;;;;;;;19.60;10.20;;;15.10;99.90;;;;;;5091420;28;20054;-83
2022/05/06 05:59:24;;;;;;;20.48;10.60;;;15.20;99.90;;;;;;5090267;28;20526;-83
2022/05/06 06:02:13;;;;;;;19.13;12.40;;;15.20;99.90;;;;;;5090330;28;20161;-82
2022/05/06 06:04:59;;;;;;;17.02;11.02;;;15.30;99.90;;;;;;5091561;28;20066;-82
2022/05/06 06:07:45;;;;;;;19.08;11.02;;;15.50;99.90;;;;;;5090390;28;20047;-82
2022/05/06 06:10:31;;;;;;;19.83;11.85;;;15.50;99.90;;;;;;5090093;28;20055;-82
2022/05/06 06:13:17;;;;;;;15.30;10.60;;;15.70;99.90;;;;;;5090603;28;20134;-81
2022/05/06 06:16:04;;;;;;;16.50;10.27;;;15.60;99.90;;;;;;5089475;28;20051;-83
2022/05/06 06:18:50;;;;;;;14.88;9.63;;;15.40;99.90;;;;;;5088379;28;20475;-82
2022/05/06 06:21:36;;;;;;;19.35;10.75;;;15.50;99.90;;;;;;5089067;28;20166;-82
2022/05/06 06:24:22;;;;;;;21.65;11.82;;;15.70;99.90;;;;;;5088132;28;20087;-82
2022/05/06 06:27:08;;;;;;;17.77;10.50;;;16.00;99.90;;;;;;5089439;28;20059;-82
2022/05/06 06:29:54;;;;;;;16.05;9.93;;;16.00;99.90;;;;;;5090856;28;20131;-83
2022/05/06 06:32:40;;;;;;;18.88;9.52;;;16.10;99.90;;;;;;5090340;28;20556;-82
2022/05/06 06:35:26;;;;;;;16.27;9.50;;;16.00;99.90;;;;;;5091096;28;20043;-82
2022/05/06 06:38:12;;;;;;;15.48;10.05;;;16.10;99.90;;;;;;5091129;28;20564;-82
2022/05/06 06:40:59;;;;;;;12.20;7.57;;;16.20;99.90;;;;;;5090794;28;20059;-82
2022/05/06 06:43:45;;;;;;;17.10;8.70;;;16.30;99.90;;;;;;5090164;28;20059;-83
2022/05/06 06:46:33;;;;;;;12.38;8.82;;;16.40;99.90;;;;;;5090037;28;20039;-83
2022/05/06 06:49:19;;;;;;;22.77;9.88;;;16.40;99.90;;;;;;5090820;28;20059;-83
2022/05/06 06:52:05;;;;;;;11.63;8.57;;;16.60;99.90;;;;;;5089923;28;20178;-83
2022/05/06 06:54:50;;;;;;;15.45;8.85;;;16.50;99.90;;;;;;5090513;28;20059;-82
2022/05/06 06:57:36;;;;;;;17.83;8.93;;;16.50;99.90;;;;;;5091364;28;20044;-83
2022/05/06 07:00:22;;;;;;;17.40;8.45;;;16.70;99.90;;;;;;5091689;28;20067;-82
2022/05/06 07:03:12;;;;;;;21.23;8.65;;;16.80;99.90;;;;;;5094085;28;20051;-82
2022/05/06 07:12:24;;;;;;;18.88;7.82;;;17.10;99.90;;;;;;5112582;28;20227;-83
2022/05/06 07:15:10;;;;;;;15.30;8.18;;;17.10;99.90;;;;;;5093476;28;20059;-81
2022/05/06 07:17:56;;;;;;;11.70;8.32;;;17.10;99.90;;;;;;5091921;28;20055;-82
2022/05/06 07:20:42;;;;;;;16.13;8.77;;;17.10;99.90;;;;;;5093135;28;20046;-82
2022/05/06 07:23:28;;;;;;;12.18;7.95;;;17.40;99.90;;;;;;5089435;28;20059;-81
2022/05/06 07:26:13;;;;;;;18.67;7.97;;;17.40;99.90;;;;;;5091933;28;20077;-83
2022/05/06 07:29:03;;;;;;;12.02;7.35;;;17.50;99.90;;;;;;5093258;28;20170;-83
2022/05/06 07:31:49;;;;;;;14.88;7.55;;;17.60;99.90;;;;;;5090603;28;20089;-81
2022/05/06 07:34:37;;;;;;;13.35;8.55;;;17.50;99.90;;;;;;5091332;28;20482;-81
2022/05/06 07:37:23;;;;;;;13.30;8.95;;;17.50;99.90;;;;;;5091905;28;20055;-82
2022/05/06 07:40:14;;;;;;;15.77;10.15;;;17.40;99.90;;;;;;5089232;28;20100;-81
2022/05/06 07:43:00;;;;;;;;;;;17.60;99.90;;;;;;5092626;28;20039;-81
2022/05/06 07:45:46;;;;;;;10.85;7.20;;;17.80;99.90;;;;;;5089584;28;19935;-83
2022/05/06 07:48:33;;;;;;;14.15;7.78;;;17.90;99.90;;;;;;5090921;28;20051;-80
2022/05/06 07:51:21;;;;;;;13.85;6.75;;;17.90;99.90;;;;;;5089792;28;20043;-82
2022/05/06 07:54:08;;;;;;;10.98;6.60;;;17.70;99.90;;;;;;5089488;28;20055;-83
2022/05/06 07:57:01;;;;;;;11.65;6.10;;;17.80;99.90;;;;;;5091452;28;20051;-83
2022/05/06 07:59:48;;;;;;;9.80;7.10;;;18.00;99.90;;;;;;5090786;28;20043;-80
2022/05/06 08:06:09;;;;;;;9.00;5.70;;;18.40;99.90;;;;;;5093492;28;20059;-82
2022/05/06 08:09:13;;;;;;;9.93;6.05;;;18.20;99.90;;;;;;5092075;28;20063;-88
2022/05/06 08:12:29;;;;;;;9.10;5.95;;;18.10;99.90;;;;;;5093203;28;20126;-86
2022/05/06 08:15:15;;;;;;;10.63;5.68;;;18.10;99.90;;;;;;5093192;28;20423;-83
2022/05/06 08:18:02;;;;;;;9.95;6.28;;;18.10;99.90;;;;;;5091928;28;20121;-85
2022/05/06 08:20:52;;;;;;;7.45;5.15;;;18.20;99.90;;;;;;5092042;28;20137;-84
2022/05/06 08:23:38;;;;;;;9.15;5.90;;;18.20;99.90;;;;;;5092793;28;20063;-86
2022/05/06 08:26:24;;;;;;;8.82;5.70;;;18.20;99.90;;;;;;5092176;28;20048;-87
2022/05/06 08:29:10;;;;;;;7.70;5.28;;;18.30;99.90;;;;;;5091514;28;20113;-87
2022/05/06 08:31:56;;;;;;;9.02;5.53;;;18.30;99.90;;;;;;5092222;28;20083;-85
2022/05/06 08:34:43;;;;;;;9.85;5.60;;;18.20;99.90;;;;;;5092522;28;20055;-85
2022/05/06 08:37:39;;;;;;;8.60;5.90;;;18.40;99.90;;;;;;5092992;28;20094;-83
2022/05/06 08:40:28;;;;;;;8.73;5.65;;;18.40;99.90;;;;;;5092201;28;20133;-85
2022/05/06 08:43:14;;;;;;;8.93;5.80;;;18.50;99.90;;;;;;5091785;28;20539;-85
2022/05/06 08:52:21;;;;;;;10.10;5.28;;;18.70;99.90;;;;;;5091720;28;20043;-80
2022/05/06 08:55:08;;;;;;;12.60;5.70;;;18.70;99.90;;;;;;5091063;28;20047;-82
2022/05/06 08:58:00;;;;;;;8.32;6.22;;;18.90;99.90;;;;;;5091605;28;20058;-82
2022/05/06 09:01:01;;;;;;;12.05;5.32;;;18.90;99.90;;;;;;5091609;28;20154;-82
2022/05/06 09:03:48;;;;;;;9.95;5.70;;;18.80;99.90;;;;;;5091497;28;20177;-82
2022/05/06 09:06:34;;;;;;;7.15;5.03;;;19.00;99.90;;;;;;5091191;28;20617;-81
2022/05/06 09:09:21;;;;;;;10.00;5.20;;;19.30;99.90;;;;;;5092287;28;20137;-83
2022/05/06 09:18:23;;;;;;;8.75;5.65;;;19.60;99.90;;;;;;5091791;28;20058;-81
2022/05/06 09:21:58;;;;;;;8.85;5.25;;;19.80;99.90;;;;;;5091519;28;20415;-82
2022/05/06 09:24:50;;;;;;;9.32;4.95;;;19.70;99.90;;;;;;5090526;28;20055;-82
2022/05/06 09:27:36;;;;;;;8.38;5.30;;;20.00;99.90;;;;;;5091017;28;20098;-82
2022/05/06 09:30:22;;;;;;;9.68;5.10;;;20.20;99.90;;;;;;5090742;28;20051;-84
2022/05/06 09:33:24;;;;;;;12.27;4.80;;;20.30;99.90;;;;;;5090885;28;20055;-86
2022/05/06 09:36:25;;;;;;;7.25;5.10;;;20.50;99.90;;;;;;5070438;28;20047;-82
2022/05/06 09:39:11;;;;;;;6.47;4.50;;;20.30;99.90;;;;;;5070358;28;20128;-85
2022/05/06 09:42:04;;;;;;;11.32;5.03;;;20.50;99.90;;;;;;5071374;28;20059;-85
2022/05/06 09:44:50;;;;;;;8.75;4.88;;;20.50;99.90;;;;;;5072075;28;20177;-81
2022/05/06 09:47:37;;;;;;;7.13;5.10;;;20.60;99.90;;;;;;5070519;28;20508;-86
2022/05/06 09:50:34;;;;;;;7.85;5.05;;;20.80;99.90;;;;;;5070117;28;20613;-85
2022/05/06 09:53:23;;;;;;;9.88;4.70;;;20.90;99.90;;;;;;5077803;28;20129;-82
2022/05/06 09:56:09;;;;;;;8.35;4.75;;;20.90;99.90;;;;;;5091610;28;20039;-81
2022/05/06 09:58:59;;;;;;;6.40;4.38;;;21.10;99.90;;;;;;5090190;28;20534;-84
2022/05/06 10:01:45;;;;;;;7.05;5.03;;;21.20;99.90;;;;;;5090354;28;20066;-86
2022/05/06 10:04:32;;;;;;;9.70;4.50;;;21.40;99.50;;;;;;5090228;28;20067;-84
2022/05/06 10:07:19;;;;;;;6.95;4.95;;;21.50;99.00;;;;;;5090425;28;20125;-80
2022/05/06 10:10:12;;;;;;;8.30;5.47;;;21.70;99.40;;;;;;5090189;28;20051;-77
2022/05/06 10:13:01;;;;;;;9.10;4.50;;;21.90;98.00;;;;;;5090603;28;20148;-83
2022/05/06 10:15:53;;;;;;;9.07;4.78;;;21.60;98.80;;;;;;5090125;28;20426;-84
2022/05/06 10:18:41;;;;;;;6.88;4.97;;;21.40;98.60;;;;;;5091240;28;20556;-78
2022/05/06 10:21:49;;;;;;;6.88;4.75;;;21.40;98.00;;;;;;5090262;28;20110;-79
2022/05/06 10:24:39;;;;;;;10.45;5.95;;;21.90;97.80;;;;;;5091477;28;20044;-82
2022/05/06 10:34:08;;;;;;;7.43;5.25;;;22.30;96.70;;;;;;5091128;28;20410;-82
2022/05/06 10:36:55;;;;;;;9.00;4.72;;;22.30;96.60;;;;;;5091900;28;20132;-83
2022/05/06 10:39:41;;;;;;;8.68;4.47;;;22.20;96.70;;;;;;5094248;28;20051;-82
2022/05/06 10:42:33;;;;;;;6.03;4.32;;;21.90;96.80;;;;;;5093736;28;20067;-81
2022/05/06 10:45:33;;;;;;;9.65;5.82;;;21.70;97.60;;;;;;5094286;28;20647;-83
2022/05/06 10:48:22;;;;;;;6.50;4.07;;;21.50;97.60;;;;;;5092404;28;20051;-78
2022/05/06 10:51:24;;;;;;;13.20;5.55;;;21.40;98.20;;;;;;5094735;28;20054;-84
2022/05/06 10:54:17;;;;;;;6.55;4.78;;;21.40;98.40;;;;;;5093436;28;20055;-82
2022/05/06 10:57:08;;;;;;;11.32;5.03;;;21.40;98.60;;;;;;5093862;28;20138;-83
2022/05/06 11:00:00;;;;;;;7.15;4.93;;;21.40;98.80;;;;;;5094838;28;20466;-83
2022/05/06 11:02:48;;;;;;;10.00;4.90;;;21.50;99.30;;;;;;5094060;28;20059;-83
2022/05/06 11:05:38;;;;;;;6.50;4.85;;;21.60;98.80;;;;;;5094585;28;20047;-82
2022/05/06 11:08:45;;;;;;;9.18;5.50;;;21.50;98.10;;;;;;5094400;28;20055;-86
2022/05/06 11:11:35;;;;;;;6.70;4.80;;;21.60;98.90;;;;;;5093138;28;20066;-85
2022/05/06 11:14:22;;;;;;;7.18;5.03;;;21.60;98.70;;;;;;5074509;28;20048;-84
2022/05/06 11:17:17;;;;;;;9.75;5.15;;;21.70;98.30;;;;;;5072750;28;20051;-84
2022/05/06 11:20:23;;;;;;;8.00;4.75;;;21.80;98.00;;;;;;5072497;28;20439;-83
2022/05/06 11:23:14;;;;;;;8.23;4.72;;;21.80;97.20;;;;;;5073857;28;20043;-82
2022/05/06 11:26:03;;;;;;;8.13;5.35;;;21.90;97.50;;;;;;5073226;28;20408;-84
2022/05/06 11:29:05;;;;;;;8.73;4.65;;;22.30;97.50;;;;;;5072878;28;20072;-82
2022/05/06 11:31:52;;;;;;;7.78;4.38;;;22.40;96.40;;;;;;5072900;28;20558;-82
2022/05/06 11:34:54;;;;;;;7.75;4.70;;;22.50;96.10;;;;;;5073632;28;20183;-78
2022/05/06 11:37:41;;;;;;;6.55;4.72;;;22.20;96.00;;;;;;5085088;28;20544;-81
2022/05/06 11:40:36;;;;;;;12.35;4.30;;;21.90;95.30;;;;;;5090860;28;20051;-85
2022/05/06 11:43:23;;;;;;;8.55;4.60;;;21.80;95.30;;;;;;5090657;28;20608;-84
2022/05/06 11:49:29;;;;;;;6.40;4.10;;;21.90;95.70;;;;;;5090676;28;20567;-83
2022/05/06 11:52:19;;;;;;;;;;;22.10;95.20;;;;;;5089325;28;20446;-82
2022/05/06 11:55:08;;;;;;;7.57;4.53;;;21.90;94.60;;;;;;5082751;28;20407;-85
2022/05/06 11:57:56;;;;;;;7.07;4.63;;;22.00;95.10;;;;;;5089265;28;20505;-83
2022/05/06 12:00:44;;;;;;;6.47;4.60;;;22.00;95.10;;;;;;5090774;28;20050;-82
2022/05/06 12:03:30;;;;;;;17.88;5.70;;;22.20;95.30;;;;;;5086065;28;20085;-85
2022/05/06 12:06:38;;;;;;;8.23;3.97;;;22.30;94.80;;;;;;5090805;28;20093;-83
2022/05/06 12:09:25;;;;;;;6.75;4.25;;;22.20;94.30;;;;;;5091593;28;20600;-82
2022/05/06 12:12:11;;;;;;;12.55;4.53;;;22.10;94.00;;;;;;5089936;28;20047;-80
2022/05/06 12:15:17;;;;;;;8.27;4.53;;;22.10;93.40;;;;;;5090458;28;20407;-79
2022/05/06 12:18:07;;;;;;;9.25;4.40;;;22.10;94.40;;;;;;5089509;28;20070;-81
2022/05/06 12:20:54;;;;;;;7.38;4.10;;;22.00;93.60;;;;;;5091655;28;20058;-81
2022/05/06 12:23:40;;;;;;;10.25;4.65;;;21.90;93.40;;;;;;5091914;28;20051;-79
2022/05/06 12:26:37;;;;;;;7.25;4.13;;;22.00;94.00;;;;;;5092919;28;20177;-83
2022/05/06 12:29:23;;;;;;;7.10;4.30;;;22.00;92.70;;;;;;5091513;28;20051;-85
2022/05/06 12:32:08;;;;;;;8.70;5.22;;;22.00;92.10;;;;;;5093090;28;20526;-81
2022/05/06 12:35:08;;;;;;;11.18;4.97;;;22.00;91.80;;;;;;5093179;28;20058;-87
2022/05/06 12:38:00;;;;;;;10.15;5.80;;;22.10;91.70;;;;;;5091450;28;20174;-82
2022/05/06 12:40:47;;;;;;;7.22;4.25;;;22.10;91.20;;;;;;5092863;28;20055;-83
2022/05/06 12:43:33;;;;;;;7.13;4.47;;;22.20;91.00;;;;;;5092261;28;20066;-81
2022/05/06 12:46:33;;;;;;;7.32;4.57;;;22.50;90.40;;;;;;5092206;28;20116;-86
2022/05/06 12:49:41;;;;;;;9.00;4.53;;;22.60;89.90;;;;;;5091132;28;20063;-83
2022/05/06 12:52:26;;;;;;;9.18;4.60;;;22.70;88.40;;;;;;5093400;28;20048;-83
2022/05/06 12:55:38;;;;;;;9.55;4.20;;;23.10;87.80;;;;;;5092541;28;20453;-82
2022/05/06 12:58:27;;;;;;;10.65;5.68;;;23.50;86.00;;;;;;5087640;28;20145;-86
2022/05/06 13:01:13;;;;;;;12.75;5.53;;;23.70;85.10;;;;;;5087667;28;20189;-79
2022/05/06 13:04:00;;;;;;;11.77;5.28;;;23.90;81.90;;;;;;5089600;28;20051;-84
2022/05/06 13:06:46;;;;;;;30.83;12.50;;;23.60;81.30;;;;;;5090095;28;20047;-85
2022/05/06 13:09:32;;;;;;;20.02;8.05;;;23.50;84.20;;;;;;5087215;28;20128;-81
2022/05/06 13:12:18;;;;;;;9.35;5.40;;;23.30;81.10;;;;;;5091830;28;20063;-84
2022/05/06 13:15:04;;;;;;;9.57;5.00;;;23.20;82.30;;;;;;5092044;28;20043;-79
2022/05/06 13:17:53;;;;;;;12.20;5.38;;;23.10;81.40;;;;;;5091972;28;20048;-76
2022/05/06 13:20:39;;;;;;;7.63;5.07;;;23.00;82.80;;;;;;5092448;28;20054;-81
2022/05/06 13:23:25;;;;;;;7.68;4.07;;;23.10;82.40;;;;;;5091535;28;20051;-82
2022/05/06 13:26:11;;;;;;;7.53;4.40;;;22.90;80.60;;;;;;5091946;28;20193;-80
2022/05/06 13:28:57;;;;;;;7.05;4.18;;;22.80;81.30;;;;;;5090699;28;20059;-81
2022/05/06 13:31:43;;;;;;;8.82;4.57;;;23.00;81.20;;;;;;5090435;28;20824;-84
2022/05/06 13:34:29;;;;;;;9.45;4.45;;;23.10;80.40;;;;;;5091737;28;20047;-85
2022/05/06 13:37:15;;;;;;;7.20;4.00;;;23.20;79.20;;;;;;5092048;28;20114;-80
2022/05/06 13:40:01;;;;;;;9.43;4.85;;;23.40;78.80;;;;;;5091431;28;20054;-82
2022/05/06 13:42:47;;;;;;;9.93;4.35;;;23.40;79.10;;;;;;5089955;28;20043;-80
2022/05/06 13:45:34;;;;;;;7.03;4.18;;;23.60;79.40;;;;;;5081511;28;20060;-79
2022/05/06 13:48:20;;;;;;;6.55;4.57;;;23.60;78.40;;;;;;5069943;28;20198;-83
2022/05/06 13:51:06;;;;;;;8.07;4.53;;;23.60;77.90;;;;;;5088257;28;20051;-83
2022/05/06 13:53:52;;;;;;;7.00;4.47;;;23.60;74.50;;;;;;5088963;28;20189;-78
2022/05/06 13:59:45;;;;;;;11.23;4.68;;;24.00;74.20;;;;;;5071449;28;20044;-80
2022/05/06 14:03:14;;;;;;;6.50;4.20;;;24.20;73.00;;;;;;5073552;28;20514;-84
2022/05/06 14:06:15;;;;;;;6.13;4.00;;;24.30;73.70;;;;;;5067578;28;20059;-78
2022/05/06 14:09:01;;;;;;;6.28;3.83;;;24.50;71.70;;;;;;5084225;28;20055;-82
2022/05/06 14:11:47;;;;;;;6.38;4.10;;;25.00;70.50;;;;;;5080439;28;20046;-78
2022/05/06 14:14:33;;;;;;;8.55;5.30;;;25.00;68.80;;;;;;5095412;28;20051;-78
2022/05/06 14:17:20;;;;;;;6.82;4.53;;;24.80;69.40;;;;;;5094966;28;20509;-83
2022/05/06 14:20:09;;;;;;;6.03;3.55;;;24.90;69.20;;;;;;5094246;28;20165;-80
2022/05/06 14:22:55;;;;;;;7.13;3.70;;;24.50;65.90;;;;;;5095210;28;20047;-80
2022/05/06 14:25:42;;;;;;;5.82;3.75;;;24.70;67.90;;;;;;5093272;28;20055;-79
2022/05/06 14:28:28;;;;;;;7.07;3.28;;;24.60;67.00;;;;;;5094531;28;20081;-77
2022/05/06 14:31:14;;;;;;;8.70;4.40;;;24.50;67.50;;;;;;5093666;28;20144;-75
2022/05/06 14:34:07;;;;;;;7.07;3.47;;;24.50;67.70;;;;;;5084089;28;20112;-78
2022/05/06 14:36:53;;;;;;;9.20;4.25;;;24.70;68.80;;;;;;5094797;28;20051;-78
2022/05/06 14:39:39;;;;;;;8.45;4.40;;;25.00;68.70;;;;;;5093795;28;20040;-81
2022/05/06 14:42:25;;;;;;;7.65;3.75;;;24.80;68.50;;;;;;5095141;28;20051;-79
2022/05/06 14:45:12;;;;;;;6.85;4.35;;;24.50;69.40;;;;;;5093948;28;20058;-79
2022/05/06 14:48:13;;;;;;;6.63;3.83;;;24.20;70.40;;;;;;5091470;28;20181;-78
2022/05/06 14:50:59;;;;;;;6.28;4.00;;;24.10;71.30;;;;;;5074050;28;20051;-80
2022/05/06 14:53:45;;;;;;;9.32;3.95;;;23.70;72.20;;;;;;5074093;28;20210;-81
2022/05/06 14:56:34;;;;;;;5.43;3.42;;;23.50;71.60;;;;;;5074690;28;20062;-80
2022/05/06 14:59:27;;;;;;;9.05;4.60;;;23.30;72.70;;;;;;5074548;28;20051;-80
2022/05/06 15:02:13;;;;;;;9.80;3.83;;;23.40;73.40;;;;;;5091034;28;20403;-81
2022/05/06 15:05:00;;;;;;;8.40;4.43;;;23.20;74.00;;;;;;5093791;28;20054;-78
2022/05/06 15:07:47;;;;;;;10.52;4.95;;;23.10;76.90;;;;;;5079410;28;20062;-77
2022/05/06 15:10:33;;;;;;;8.60;4.80;;;22.80;80.00;;;;;;5094019;28;20136;-79
2022/05/06 15:13:19;;;;;;;8.32;5.00;;;22.40;82.10;;;;;;5094215;28;20601;-76
2022/05/06 15:16:07;;;;;;;8.50;5.10;;;22.20;82.70;;;;;;5089886;28;20055;-77